createdAt,value
2023-04-15T00:01:12.080Z,97020.63
2023-04-15T00:06:15.180Z,97023.53
2023-04-15T00:11:18.668Z,97011.50
2023-04-15T00:16:21.610Z,97024.16
2023-04-15T00:21:24.237Z,97024.00
2023-04-15T00:26:27.320Z,97022.03
2023-04-15T00:31:33.202Z,97012.06
2023-04-15T00:36:36.827Z,97018.59
2023-04-15T00:41:39.976Z,97009.69
2023-04-15T00:46:43.597Z,97007.94
2023-04-15T00:51:47.146Z,97012.75
2023-04-15T00:56:49.778Z,97013.03
2023-04-15T01:01:53.348Z,97021.69
2023-04-15T01:06:56.280Z,97017.59
2023-04-15T01:11:59.558Z,97013.25
2023-04-15T01:17:02.517Z,97008.19
2023-04-15T01:22:05.856Z,96999.72
2023-04-15T01:27:09.291Z,97009.31
2023-04-15T01:32:12.271Z,97013.53
2023-04-15T01:37:14.989Z,97008.19
2023-04-15T01:42:19.302Z,97011.66
2023-04-15T01:47:22.729Z,97016.00
2023-04-15T01:52:25.512Z,97013.81
2023-04-15T01:57:28.207Z,97009.31
2023-04-15T02:02:31.169Z,97016.34
2023-04-15T02:07:33.989Z,97008.84
2023-04-15T02:12:38.140Z,97015.97
2023-04-15T02:17:46.129Z,97013.25
2023-04-15T02:22:51.120Z,97007.31
2023-04-15T02:27:53.868Z,96998.94
2023-04-15T02:32:56.605Z,97006.91
2023-04-15T02:38:01.245Z,96992.91
2023-04-15T02:43:05.506Z,96999.56
2023-04-15T02:48:08.581Z,96998.78
2023-04-15T02:53:13.514Z,96998.97
2023-04-15T02:58:16.556Z,96994.16
2023-04-15T03:03:19.190Z,96991.38
2023-04-15T03:08:21.835Z,96988.25
2023-04-15T03:13:24.717Z,96986.38
2023-04-15T03:18:27.440Z,96987.31
2023-04-15T03:23:31.422Z,96991.19
2023-04-15T03:28:34.297Z,96988.72
2023-04-15T03:33:38.305Z,96988.66
2023-04-15T03:38:41.144Z,96993.31
2023-04-15T03:43:43.693Z,96998.06
2023-04-15T03:48:47.052Z,96992.25
2023-04-15T03:53:49.784Z,96989.78
2023-04-15T03:58:52.359Z,96997.91
2023-04-15T04:03:55.113Z,96997.13
2023-04-15T04:08:57.972Z,96997.13
2023-04-15T04:14:00.608Z,96997.41
2023-04-15T04:19:03.386Z,97014.44
2023-04-15T04:24:06.565Z,97010.22
2023-04-15T04:29:09.263Z,97012.25
2023-04-15T04:34:11.852Z,97009.22
2023-04-15T04:39:14.610Z,97018.25
2023-04-15T04:44:17.168Z,97017.47
2023-04-15T04:49:19.681Z,97021.69
2023-04-15T04:54:22.556Z,97024.22
2023-04-15T04:59:25.391Z,97028.44
2023-04-15T05:04:27.965Z,97024.81
2023-04-15T05:09:32.592Z,97026.06
2023-04-15T05:14:35.487Z,97028.63
2023-04-15T05:19:38.069Z,97036.66
2023-04-15T05:24:40.807Z,97033.22
2023-04-15T05:29:43.365Z,97029.63
2023-04-15T05:34:46.012Z,97030.66
2023-04-15T05:39:51.619Z,97032.81
2023-04-15T05:44:54.120Z,97023.81
2023-04-15T05:49:57.171Z,97024.09
2023-04-15T05:54:59.924Z,97029.75
2023-04-15T06:00:02.478Z,97022.38
2023-04-15T06:05:12.264Z,97023.22
2023-04-15T06:10:14.784Z,97031.56
2023-04-15T06:15:17.360Z,97025.56
2023-04-15T06:20:20.455Z,97034.00
2023-04-15T06:25:23.306Z,97039.78
2023-04-15T06:30:26.143Z,97048.03
2023-04-15T06:35:28.870Z,97049.50
2023-04-15T06:40:31.473Z,97050.59
2023-04-15T06:45:34.291Z,97048.47
2023-04-15T06:50:36.963Z,97055.09
2023-04-15T06:55:40.394Z,97064.78
2023-04-15T07:00:43.025Z,97063.22
2023-04-15T07:05:46.017Z,97062.34
2023-04-15T07:10:48.639Z,97064.03
2023-04-15T07:15:51.235Z,97057.09
2023-04-15T07:20:53.886Z,97048.69
2023-04-15T07:25:57.232Z,97049.09
2023-04-15T07:31:00.066Z,97043.50
2023-04-15T07:36:02.882Z,97041.38
2023-04-15T07:41:05.727Z,97040.81
2023-04-15T07:46:08.555Z,97041.09
2023-04-15T07:51:11.148Z,97043.09
2023-04-15T07:56:13.752Z,97051.81
2023-04-15T08:01:16.740Z,97049.13
2023-04-15T08:06:19.751Z,97041.47
2023-04-15T08:11:23.570Z,97039.13
2023-04-15T08:16:30.344Z,97039.69
2023-04-15T08:21:33.266Z,97044.84
2023-04-15T08:26:36.101Z,97055.13
2023-04-15T08:31:38.806Z,97046.63
2023-04-15T08:36:41.914Z,97042.25
2023-04-15T08:41:52.192Z,97036.13
2023-04-15T08:46:57.389Z,97034.78
2023-04-15T08:52:00.736Z,97047.28
2023-04-15T08:57:04.076Z,97040.72
2023-04-15T09:02:07.563Z,97043.59
2023-04-15T09:07:10.312Z,97047.16
2023-04-15T09:12:13.431Z,97045.00
2023-04-15T09:17:21.281Z,97048.13
2023-04-15T09:22:23.884Z,97050.91
2023-04-15T09:27:26.788Z,97055.13
2023-04-15T09:32:29.373Z,97065.56
2023-04-15T09:37:38.301Z,97066.16
2023-04-15T09:43:02.314Z,97063.91
2023-04-15T09:48:22.728Z,97071.25
2023-04-15T09:53:26.702Z,97075.69
2023-04-15T09:58:31.895Z,97065.91
2023-04-15T10:03:37.863Z,97075.41
2023-04-15T10:08:41.960Z,97079.53
2023-04-15T10:13:45.329Z,97084.34
2023-04-15T10:18:55.016Z,97085.72
2023-04-15T10:23:58.763Z,97082.63
2023-04-15T10:29:01.680Z,97089.41
2023-04-15T10:34:06.742Z,97092.19
2023-04-15T10:39:34.704Z,97099.72
2023-04-15T10:44:42.620Z,97096.56
2023-04-15T10:49:50.983Z,97105.41
2023-04-15T10:55:18.106Z,97098.66
2023-04-15T11:00:24.784Z,97101.06
2023-04-15T11:05:42.835Z,97112.47
2023-04-15T11:10:45.699Z,97112.00
2023-04-15T11:15:49.806Z,97114.91
2023-04-15T11:21:04.507Z,97103.31
2023-04-15T11:26:10.013Z,97101.75
2023-04-15T11:31:15.251Z,97102.56
2023-04-15T11:36:18.170Z,97106.66
2023-04-15T11:41:27.309Z,97107.75
2023-04-15T11:46:31.862Z,97107.00
2023-04-15T11:51:35.835Z,97128.25
2023-04-15T11:56:38.935Z,97125.91
2023-04-15T12:01:47.034Z,97128.88
2023-04-15T12:06:49.794Z,97128.00
2023-04-15T12:11:57.598Z,97142.81
2023-04-15T12:17:07.155Z,97141.81
2023-04-15T12:22:11.910Z,97152.66
2023-04-15T12:27:17.171Z,97157.63
2023-04-15T12:32:21.198Z,97177.06
2023-04-15T12:37:24.183Z,97214.75
2023-04-15T12:42:26.807Z,97225.56
2023-04-15T12:47:29.500Z,97238.28
2023-04-15T12:52:32.093Z,97257.56
2023-04-15T12:57:34.651Z,97248.66
2023-04-15T13:02:37.911Z,97256.31
2023-04-15T13:07:41.081Z,97254.13
2023-04-15T13:12:43.744Z,97248.28
2023-04-15T13:17:46.818Z,97254.59
2023-04-15T13:22:49.432Z,97261.06
2023-04-15T13:27:51.938Z,97276.59
2023-04-15T13:32:54.657Z,97278.19
2023-04-15T13:37:57.544Z,97282.09
2023-04-15T13:43:00.308Z,97279.38
2023-04-15T13:48:03.274Z,97292.06
2023-04-15T13:53:06.321Z,97292.06
2023-04-15T13:58:09.893Z,97293.13
2023-04-15T14:03:12.915Z,97291.34
2023-04-15T14:08:15.589Z,97294.41
2023-04-15T14:13:19.813Z,97290.59
2023-04-15T14:18:22.532Z,97288.81
2023-04-15T14:23:25.054Z,97317.53
2023-04-15T14:28:27.628Z,97327.28
2023-04-15T14:33:30.233Z,97331.25
2023-04-15T14:38:38.606Z,97334.91
2023-04-15T14:43:41.314Z,97356.72
2023-04-15T14:48:43.992Z,97360.84
2023-04-15T14:53:47.137Z,97363.78
2023-04-15T14:58:50.560Z,97382.25
2023-04-15T15:03:53.490Z,97383.56
2023-04-15T15:08:56.222Z,97397.59
2023-04-15T15:13:59.502Z,97406.66
2023-04-15T15:19:02.749Z,97396.47
2023-04-15T15:24:06.277Z,97408.03
2023-04-15T15:29:09.546Z,97415.09
2023-04-15T15:34:12.217Z,97415.03
2023-04-15T15:39:14.821Z,97418.22
2023-04-15T15:44:17.705Z,97422.59
2023-04-15T15:49:20.386Z,97425.69
2023-04-15T15:54:22.990Z,97429.59
2023-04-15T15:59:25.927Z,97439.88
2023-04-15T16:04:29.073Z,97437.91
2023-04-15T16:09:32.710Z,97448.97
2023-04-15T16:14:35.551Z,97465.31
2023-04-15T16:19:38.144Z,97465.38
2023-04-15T16:24:40.807Z,97484.59
2023-04-15T16:29:43.542Z,97494.06
2023-04-15T16:34:46.120Z,97505.63
2023-04-15T16:39:48.954Z,97503.59
2023-04-15T16:44:51.638Z,97519.28
2023-04-15T16:49:54.426Z,97522.22
2023-04-15T16:54:57.233Z,97531.03
2023-04-15T17:00:00.122Z,97547.91
2023-04-15T17:05:03.440Z,97548.66
2023-04-15T17:10:06.777Z,97556.19
2023-04-15T17:15:10.050Z,97563.44
2023-04-15T17:20:12.886Z,97576.75
2023-04-15T17:25:16.211Z,97577.25
2023-04-15T17:30:19.386Z,97583.78
2023-04-15T17:35:23.609Z,97601.38
2023-04-15T17:40:26.508Z,97605.28
2023-04-15T17:45:30.345Z,97610.50
2023-04-15T17:50:33.112Z,97620.44
2023-04-15T17:55:36.111Z,97627.13
2023-04-15T18:00:38.800Z,97634.53
2023-04-15T18:05:42.620Z,97628.31
2023-04-15T18:10:45.426Z,97635.41
2023-04-15T18:15:49.667Z,97651.94
2023-04-15T18:20:52.433Z,97649.38
2023-04-15T18:25:55.183Z,97658.78
2023-04-15T18:30:58.295Z,97671.03
2023-04-15T18:36:02.733Z,97670.41
2023-04-15T18:41:05.869Z,97687.72
2023-04-15T18:46:12.102Z,97685.16
2023-04-15T18:51:15.319Z,97695.81
2023-04-15T18:56:17.890Z,97712.00
2023-04-15T19:01:20.525Z,97722.91
2023-04-15T19:06:23.670Z,97713.81
2023-04-15T19:11:26.780Z,97724.91
2023-04-15T19:16:30.622Z,97724.53
2023-04-15T19:21:33.377Z,97728.59
2023-04-15T19:26:37.405Z,97732.06
2023-04-15T19:31:40.122Z,97746.00
2023-04-15T19:36:42.941Z,97746.41
2023-04-15T19:41:46.111Z,97750.00
2023-04-15T19:46:50.249Z,97755.03
2023-04-15T19:51:52.837Z,97751.97
2023-04-15T19:56:55.359Z,97751.97
2023-04-15T20:01:58.391Z,97760.91
2023-04-15T20:07:01.240Z,97758.41
2023-04-15T20:12:48.295Z,97763.47
2023-04-15T20:17:26.686Z,97749.13
2023-04-15T20:22:29.408Z,97751.06
2023-04-15T20:27:32.128Z,97752.94
2023-04-15T20:32:38.834Z,97762.19
2023-04-15T20:37:45.396Z,97761.50
2023-04-15T20:42:48.117Z,97758.50
2023-04-15T20:47:51.062Z,97757.72
2023-04-15T20:52:53.723Z,97765.63
2023-04-15T20:57:57.164Z,97771.00
2023-04-15T21:03:00.068Z,97768.63
2023-04-15T21:08:02.901Z,97781.09
2023-04-15T21:13:06.978Z,97776.09
2023-04-15T21:18:09.610Z,97784.66
2023-04-15T21:23:13.141Z,97787.16
2023-04-15T21:28:15.795Z,97796.28
2023-04-15T21:33:20.524Z,97795.22
2023-04-15T21:38:23.601Z,97813.13
2023-04-15T21:43:26.434Z,97811.56
2023-04-15T21:48:29.295Z,97816.25
2023-04-15T21:53:31.826Z,97818.66
2023-04-15T21:58:34.669Z,97825.47
2023-04-15T22:03:37.554Z,97827.31
2023-04-15T22:08:55.345Z,97834.53
2023-04-15T22:14:00.278Z,97834.44
2023-04-15T22:19:02.988Z,97838.81
2023-04-15T22:24:36.857Z,97849.91
2023-04-15T22:29:28.849Z,97845.34
2023-04-15T22:34:31.648Z,97859.88
2023-04-15T22:39:37.394Z,97867.50
2023-04-15T22:44:40.174Z,97858.19
2023-04-15T22:49:42.872Z,97866.41
2023-04-15T22:54:45.675Z,97870.56
2023-04-15T22:59:48.481Z,97869.38
2023-04-15T23:04:51.106Z,97871.19
2023-04-15T23:09:53.858Z,97874.25
2023-04-15T23:14:56.775Z,97895.28
2023-04-15T23:19:59.437Z,97885.16
2023-04-15T23:25:02.236Z,97886.47
2023-04-15T23:30:05.266Z,97887.22
2023-04-15T23:35:08.476Z,97903.03
2023-04-15T23:40:11.772Z,97902.81
2023-04-15T23:45:14.317Z,97904.47
2023-04-15T23:50:17.179Z,97898.91
2023-04-15T23:55:19.729Z,97902.97
